createdAt,value
2023-01-13T00:00:55.679Z,9.2
2023-01-13T00:01:59.244Z,9.3
2023-01-13T00:03:02.772Z,9.3
2023-01-13T00:04:06.159Z,9.3
2023-01-13T00:05:09.439Z,9.3
2023-01-13T00:06:12.655Z,9.3
2023-01-13T00:07:15.494Z,9.3
2023-01-13T00:08:18.078Z,9.3
2023-01-13T00:09:20.714Z,9.2
2023-01-13T00:10:23.935Z,9.2
2023-01-13T00:11:27.547Z,9.2
2023-01-13T00:12:30.494Z,9.2
2023-01-13T00:13:33.798Z,9.2
2023-01-13T00:14:38.144Z,9.2
2023-01-13T00:15:41.187Z,9.2
2023-01-13T00:16:44.583Z,9.3
2023-01-13T00:17:48.210Z,9.2
2023-01-13T00:18:52.371Z,9.2
2023-01-13T00:19:54.987Z,9.2
2023-01-13T00:20:58.083Z,9.2
2023-01-13T00:22:00.949Z,9.2
2023-01-13T00:23:05.120Z,9.2
2023-01-13T00:24:08.186Z,9.3
2023-01-13T00:25:11.047Z,9.3
2023-01-13T00:26:14.608Z,9.2
2023-01-13T00:27:18.123Z,9.3
2023-01-13T00:28:22.335Z,9.3
2023-01-13T00:29:25.295Z,9.3
2023-01-13T00:30:29.713Z,9.3
2023-01-13T00:31:33.577Z,9.3
2023-01-13T00:32:36.795Z,9.3
2023-01-13T00:33:40.152Z,9.3
2023-01-13T00:34:43.477Z,9.3
2023-01-13T00:35:46.460Z,9.3
2023-01-13T00:36:49.798Z,9.3
2023-01-13T00:37:53.305Z,9.3
2023-01-13T00:39:11.193Z,9.3
2023-01-13T00:40:14.692Z,9.3
2023-01-13T00:41:17.612Z,9.3
2023-01-13T00:42:20.724Z,9.3
2023-01-13T00:43:24.214Z,9.3
2023-01-13T00:44:27.945Z,9.3
2023-01-13T00:45:31.217Z,9.3
2023-01-13T00:46:34.432Z,9.3
2023-01-13T00:47:37.948Z,9.3
2023-01-13T00:48:41.732Z,9.3
2023-01-13T00:49:44.969Z,9.3
2023-01-13T00:50:47.952Z,9.3
2023-01-13T00:51:51.666Z,9.3
2023-01-13T00:52:55.460Z,9.3
2023-01-13T00:53:59.213Z,9.3
2023-01-13T00:55:01.772Z,9.3
2023-01-13T00:56:04.692Z,9.3
2023-01-13T00:57:08.269Z,9.3
2023-01-13T00:58:11.137Z,9.3
2023-01-13T00:59:14.302Z,9.3
2023-01-13T01:00:16.942Z,9.3
2023-01-13T01:01:21.559Z,9.3
2023-01-13T01:02:26.262Z,9.3
2023-01-13T01:03:29.563Z,9.2
2023-01-13T01:04:32.152Z,9.3
2023-01-13T01:05:36.055Z,9.3
2023-01-13T01:06:39.502Z,9.3
2023-01-13T01:07:43.088Z,9.3
2023-01-13T01:08:46.207Z,9.3
2023-01-13T01:09:49.391Z,9.3
2023-01-13T01:10:52.579Z,9.3
2023-01-13T01:11:55.485Z,9.4
2023-01-13T01:12:58.299Z,9.3
2023-01-13T01:14:01.866Z,9.4
2023-01-13T01:15:05.443Z,9.3
2023-01-13T01:16:08.735Z,9.3
2023-01-13T01:17:12.049Z,9.3
2023-01-13T01:18:15.218Z,9.3
2023-01-13T01:19:19.306Z,9.3
2023-01-13T01:20:22.619Z,9.3
2023-01-13T01:21:25.620Z,9.4
2023-01-13T01:22:29.495Z,9.4
2023-01-13T01:23:32.683Z,9.3
2023-01-13T01:24:36.194Z,9.3
2023-01-13T01:25:39.012Z,9.4
2023-01-13T01:26:42.912Z,9.4
2023-01-13T01:27:45.843Z,9.3
2023-01-13T01:28:48.960Z,9.3
2023-01-13T01:29:51.942Z,9.3
2023-01-13T01:30:55.047Z,9.3
2023-01-13T01:31:57.684Z,9.3
2023-01-13T01:33:00.636Z,9.3
2023-01-13T01:34:03.534Z,9.3
2023-01-13T01:35:07.454Z,9.3
2023-01-13T01:36:11.691Z,9.3
2023-01-13T01:37:15.863Z,9.4
2023-01-13T01:38:19.725Z,9.3
2023-01-13T01:39:22.916Z,9.4
2023-01-13T01:40:26.114Z,9.4
2023-01-13T01:41:30.302Z,9.4
2023-01-13T01:42:33.130Z,9.4
2023-01-13T01:43:35.958Z,9.4
2023-01-13T01:44:38.832Z,9.3
2023-01-13T01:45:42.399Z,9.4
2023-01-13T01:46:45.759Z,9.4
2023-01-13T01:47:49.089Z,9.4
2023-01-13T01:48:52.278Z,9.4
2023-01-13T01:49:54.568Z,9.4
2023-01-13T01:50:57.690Z,9.4
2023-01-13T01:52:00.824Z,9.4
2023-01-13T01:53:04.057Z,9.4
2023-01-13T01:54:07.568Z,9.3
2023-01-13T01:55:11.107Z,9.3
2023-01-13T01:56:14.574Z,9.3
2023-01-13T01:57:17.421Z,9.4
2023-01-13T01:58:20.709Z,9.4
2023-01-13T01:59:23.532Z,9.4
2023-01-13T02:00:26.473Z,9.4
2023-01-13T02:01:30.843Z,9.4
2023-01-13T02:02:34.834Z,9.4
2023-01-13T02:03:38.242Z,9.3
2023-01-13T02:04:41.468Z,9.3
2023-01-13T02:05:44.686Z,9.3
2023-01-13T02:06:48.239Z,9.3
2023-01-13T02:07:51.725Z,9.3
2023-01-13T02:08:54.939Z,9.3
2023-01-13T02:09:58.838Z,9.3
2023-01-13T02:11:01.759Z,9.3
2023-01-13T02:12:05.238Z,9.2
2023-01-13T02:13:08.822Z,9.2
2023-01-13T02:14:12.605Z,9.2
2023-01-13T02:15:15.312Z,9.2
2023-01-13T02:16:18.999Z,9.2
2023-01-13T02:17:22.770Z,9.2
2023-01-13T02:18:25.867Z,9.2
2023-01-13T02:19:28.970Z,9.2
2023-01-13T02:20:32.269Z,9.1
2023-01-13T02:21:35.731Z,9.1
2023-01-13T02:22:38.597Z,9.1
2023-01-13T02:23:42.066Z,9.1
2023-01-13T02:24:45.765Z,9.1
2023-01-13T02:25:49.849Z,9.1
2023-01-13T02:26:53.844Z,9
2023-01-13T02:27:57.188Z,9.1
2023-01-13T02:29:00.822Z,9.1
2023-01-13T02:30:04.126Z,9
2023-01-13T02:31:06.943Z,9
2023-01-13T02:32:10.135Z,8.9
2023-01-13T02:33:13.366Z,8.9
2023-01-13T02:34:16.923Z,8.9
2023-01-13T02:35:19.860Z,8.9
2023-01-13T02:36:22.976Z,8.8
2023-01-13T02:37:25.885Z,8.7
2023-01-13T02:38:29.674Z,8.6
2023-01-13T02:39:32.409Z,8.6
2023-01-13T02:40:35.973Z,8.6
2023-01-13T02:41:39.815Z,8.6
2023-01-13T02:42:43.392Z,8.5
2023-01-13T02:43:46.262Z,8.5
2023-01-13T02:44:49.751Z,8.5
2023-01-13T02:45:53.167Z,8.4
2023-01-13T02:46:56.908Z,8.4
2023-01-13T02:48:00.312Z,8.4
2023-01-13T02:49:03.284Z,8.5
2023-01-13T02:50:06.835Z,8.5
2023-01-13T02:51:10.115Z,8.4
2023-01-13T02:52:13.713Z,8.4
2023-01-13T02:53:16.714Z,8.4
2023-01-13T02:54:20.168Z,8.4
2023-01-13T02:55:23.702Z,8.4
2023-01-13T02:56:27.236Z,8.4
2023-01-13T02:57:30.480Z,8.4
2023-01-13T02:58:33.782Z,8.4
2023-01-13T02:59:37.302Z,8.4
2023-01-13T03:00:40.082Z,8.3
2023-01-13T03:01:44.129Z,8.3
2023-01-13T03:02:47.878Z,8.3
2023-01-13T03:03:50.685Z,8.3
2023-01-13T03:04:54.096Z,8.3
2023-01-13T03:05:57.226Z,8.3
2023-01-13T03:07:00.596Z,8.3
2023-01-13T03:08:04.010Z,8.3
2023-01-13T03:09:07.005Z,8.3
2023-01-13T03:10:09.546Z,8.3
2023-01-13T03:11:13.064Z,8.3
2023-01-13T03:12:16.879Z,8.3
2023-01-13T03:13:20.388Z,8.3
2023-01-13T03:14:23.477Z,8.2
2023-01-13T03:15:25.986Z,8.2
2023-01-13T03:16:29.609Z,8.2
2023-01-13T03:17:33.801Z,8.1
2023-01-13T03:18:36.939Z,8.2
2023-01-13T03:19:39.949Z,8.2
2023-01-13T03:20:43.378Z,8.2
2023-01-13T03:21:46.714Z,8.1
2023-01-13T03:22:49.744Z,8.1
2023-01-13T03:23:52.757Z,8.1
2023-01-13T03:24:56.236Z,8.1
2023-01-13T03:25:59.271Z,8.1
2023-01-13T03:27:02.338Z,8.1
2023-01-13T03:28:05.779Z,8.1
2023-01-13T03:29:09.014Z,8.1
2023-01-13T03:30:11.349Z,8.1
2023-01-13T03:31:14.117Z,8.1
2023-01-13T03:32:16.844Z,8.1
2023-01-13T03:33:20.569Z,8.1
2023-01-13T03:34:23.416Z,8.1
2023-01-13T03:35:25.737Z,8.1
2023-01-13T03:36:28.799Z,8
2023-01-13T03:37:32.262Z,8
2023-01-13T03:38:35.646Z,8
2023-01-13T03:39:39.451Z,8
2023-01-13T03:40:43.551Z,7.9
2023-01-13T03:41:47.266Z,7.9
2023-01-13T03:42:50.215Z,7.9
2023-01-13T03:43:53.998Z,8
2023-01-13T03:44:57.520Z,7.9
2023-01-13T03:46:00.626Z,7.9
2023-01-13T03:47:03.537Z,7.9
2023-01-13T03:48:06.605Z,7.9
2023-01-13T03:49:09.609Z,7.9
2023-01-13T03:50:12.166Z,7.9
2023-01-13T03:51:15.320Z,7.9
2023-01-13T03:52:19.030Z,7.9
2023-01-13T03:53:22.021Z,7.9
2023-01-13T03:54:25.340Z,7.9
2023-01-13T03:55:28.227Z,7.9
2023-01-13T03:56:31.824Z,7.9
2023-01-13T03:57:34.378Z,7.9
2023-01-13T03:58:37.582Z,7.9
2023-01-13T03:59:41.260Z,7.9
2023-01-13T04:00:44.193Z,7.9
2023-01-13T04:01:48.070Z,7.9
2023-01-13T04:02:51.418Z,7.8
2023-01-13T04:03:54.810Z,7.9
2023-01-13T04:04:57.952Z,7.8
2023-01-13T04:06:00.389Z,7.8
2023-01-13T04:07:03.439Z,7.8
2023-01-13T04:08:06.295Z,7.8
2023-01-13T04:09:09.673Z,7.8
2023-01-13T04:10:12.480Z,7.8
2023-01-13T04:11:15.926Z,7.7
2023-01-13T04:12:18.930Z,7.7
2023-01-13T04:13:22.629Z,7.7
2023-01-13T04:14:25.658Z,7.6
2023-01-13T04:15:29.576Z,7.6
2023-01-13T04:16:33.120Z,7.6
2023-01-13T04:17:38.850Z,7.6
2023-01-13T04:18:42.248Z,7.6
2023-01-13T04:19:45.601Z,7.7
2023-01-13T04:20:47.849Z,7.7
2023-01-13T04:21:50.924Z,7.6
2023-01-13T04:22:53.993Z,7.6
2023-01-13T04:23:57.469Z,7.6
2023-01-13T04:25:00.196Z,7.6
2023-01-13T04:26:03.322Z,7.6
2023-01-13T04:27:06.326Z,7.6
2023-01-13T04:28:09.700Z,7.6
2023-01-13T04:29:16.796Z,7.6
2023-01-13T04:30:19.886Z,7.6
2023-01-13T04:31:24.009Z,7.6
2023-01-13T04:32:27.657Z,7.6
2023-01-13T04:33:30.472Z,7.5
2023-01-13T04:34:33.806Z,7.5
2023-01-13T04:35:36.732Z,7.5
2023-01-13T04:36:39.842Z,7.5
2023-01-13T04:37:43.453Z,7.5
2023-01-13T04:38:46.799Z,7.4
2023-01-13T04:39:49.924Z,7.4
2023-01-13T04:40:52.660Z,7.4
2023-01-13T04:41:55.738Z,7.4
2023-01-13T04:42:58.908Z,7.4
2023-01-13T04:44:01.812Z,7.4
2023-01-13T04:45:05.126Z,7.4
2023-01-13T04:46:08.230Z,7.4
2023-01-13T04:47:12.407Z,7.5
2023-01-13T04:48:15.539Z,7.4
2023-01-13T04:49:18.565Z,7.4
2023-01-13T04:50:22.245Z,7.3
2023-01-13T04:51:25.316Z,7.3
2023-01-13T04:52:28.463Z,7.4
2023-01-13T04:53:30.931Z,7.4
2023-01-13T04:54:34.687Z,7.4
2023-01-13T04:55:37.460Z,7.3
2023-01-13T04:56:41.218Z,7.4
2023-01-13T04:57:44.045Z,7.3
2023-01-13T04:58:46.568Z,7.3
2023-01-13T04:59:49.640Z,7.3
2023-01-13T05:00:53.142Z,7.3
2023-01-13T05:01:57.350Z,7.4
2023-01-13T05:03:00.855Z,7.3
2023-01-13T05:04:04.299Z,7.3
2023-01-13T05:05:07.601Z,7.3
2023-01-13T05:06:10.168Z,7.3
2023-01-13T05:07:13.881Z,7.3
2023-01-13T05:08:17.347Z,7.3
2023-01-13T05:09:20.513Z,7.3
2023-01-13T05:10:25.301Z,7.3
2023-01-13T05:11:29.111Z,7.3
2023-01-13T05:12:32.457Z,7.3
2023-01-13T05:13:35.529Z,7.3
2023-01-13T05:14:39.263Z,7.3
2023-01-13T05:15:42.307Z,7.3
2023-01-13T05:16:45.871Z,7.3
2023-01-13T05:17:49.652Z,7.3
2023-01-13T05:18:53.098Z,7.3
2023-01-13T05:19:56.513Z,7.3
2023-01-13T05:20:59.845Z,7.3
2023-01-13T05:22:03.145Z,7.3
2023-01-13T05:23:05.386Z,7.2
2023-01-13T05:24:08.102Z,7.2
2023-01-13T05:25:10.977Z,7.2
2023-01-13T05:26:13.997Z,7.2
2023-01-13T05:27:17.166Z,7.2
2023-01-13T05:28:19.888Z,7.2
2023-01-13T05:29:22.989Z,7.2
2023-01-13T05:30:26.744Z,7.2
2023-01-13T05:31:30.099Z,7.2
2023-01-13T05:32:33.917Z,7.2
2023-01-13T05:33:37.988Z,7.2
2023-01-13T05:34:41.469Z,7.1
2023-01-13T05:35:44.890Z,7.1
2023-01-13T05:36:48.073Z,7.1
2023-01-13T05:37:50.662Z,7.1
2023-01-13T05:38:53.846Z,7.1
2023-01-13T05:39:57.289Z,7.1
2023-01-13T05:41:01.626Z,7.1
2023-01-13T05:42:04.791Z,7.1
2023-01-13T05:43:08.284Z,7.1
2023-01-13T05:44:11.936Z,7.1
2023-01-13T05:45:15.071Z,7.1
2023-01-13T05:46:18.960Z,7.1
2023-01-13T05:47:22.303Z,7
2023-01-13T05:48:25.101Z,7
2023-01-13T05:49:28.204Z,7.1
2023-01-13T05:50:31.646Z,6.9
2023-01-13T05:51:35.399Z,7
2023-01-13T05:52:38.887Z,7
2023-01-13T05:53:42.357Z,6.9
2023-01-13T05:54:45.820Z,6.9
2023-01-13T05:55:47.984Z,6.9
2023-01-13T05:56:51.092Z,6.9
2023-01-13T05:57:54.149Z,6.9
2023-01-13T05:58:57.925Z,6.9
2023-01-13T06:00:01.582Z,6.9
2023-01-13T06:01:04.746Z,6.8
2023-01-13T06:02:07.754Z,6.8
2023-01-13T06:03:10.682Z,6.8
2023-01-13T06:04:14.336Z,6.8
2023-01-13T06:05:17.361Z,6.8
2023-01-13T06:06:20.866Z,6.8
2023-01-13T06:07:24.260Z,6.8
2023-01-13T06:08:27.079Z,6.7
2023-01-13T06:09:30.062Z,6.8
2023-01-13T06:10:32.897Z,6.7
2023-01-13T06:11:36.099Z,6.8
2023-01-13T06:12:38.901Z,6.8
2023-01-13T06:13:42.359Z,6.8
2023-01-13T06:14:45.843Z,6.8
2023-01-13T06:15:49.060Z,6.8
2023-01-13T06:16:52.182Z,6.8
2023-01-13T06:17:56.111Z,6.8
2023-01-13T06:18:58.559Z,6.9
2023-01-13T06:20:02.042Z,6.8
2023-01-13T06:21:05.446Z,6.8
2023-01-13T06:22:08.867Z,6.8
2023-01-13T06:23:12.462Z,6.8
2023-01-13T06:24:15.529Z,6.8
2023-01-13T06:25:18.426Z,6.8
2023-01-13T06:26:21.799Z,6.8
2023-01-13T06:27:25.189Z,6.8
2023-01-13T06:28:27.916Z,6.8
2023-01-13T06:29:30.927Z,6.8
2023-01-13T06:30:33.778Z,6.8
2023-01-13T06:31:37.069Z,6.8
2023-01-13T06:32:40.302Z,6.8
2023-01-13T06:33:43.497Z,6.8
2023-01-13T06:34:46.512Z,6.8
2023-01-13T06:35:49.873Z,6.8
2023-01-13T06:36:53.265Z,6.8
2023-01-13T06:37:56.935Z,6.8
2023-01-13T06:39:00.417Z,6.8
2023-01-13T06:40:03.453Z,6.7
2023-01-13T06:41:06.241Z,6.7
2023-01-13T06:42:09.537Z,6.7
2023-01-13T06:43:17.983Z,6.7
2023-01-13T06:44:21.619Z,6.7
2023-01-13T06:45:25.293Z,6.7
2023-01-13T06:46:28.570Z,6.7
2023-01-13T06:47:32.313Z,6.7
2023-01-13T06:48:36.333Z,6.7
2023-01-13T06:49:39.467Z,6.7
2023-01-13T06:50:42.470Z,6.7
2023-01-13T06:51:45.276Z,6.7
2023-01-13T06:52:48.731Z,6.7
2023-01-13T06:53:51.595Z,6.7
2023-01-13T06:54:55.303Z,6.7
2023-01-13T06:55:57.900Z,6.7
2023-01-13T06:57:00.622Z,6.7
2023-01-13T06:58:03.991Z,6.8
2023-01-13T06:59:06.997Z,6.7
2023-01-13T07:00:10.255Z,6.7
2023-01-13T07:01:14.829Z,6.7
2023-01-13T07:02:18.254Z,6.7
2023-01-13T07:03:21.613Z,6.7
2023-01-13T07:04:24.712Z,6.7
2023-01-13T07:05:27.722Z,6.7
2023-01-13T07:06:31.178Z,6.7
2023-01-13T07:07:34.872Z,6.7
2023-01-13T07:08:37.996Z,6.8
2023-01-13T07:09:41.554Z,6.8
2023-01-13T07:10:44.973Z,6.8
2023-01-13T07:11:48.095Z,6.7
2023-01-13T07:12:51.451Z,6.7
2023-01-13T07:13:53.893Z,6.8
2023-01-13T07:14:57.542Z,6.8
2023-01-13T07:16:01.876Z,6.7
2023-01-13T07:17:04.465Z,6.7
2023-01-13T07:18:07.283Z,6.7
2023-01-13T07:19:10.649Z,6.8
2023-01-13T07:20:13.072Z,6.7
2023-01-13T07:21:16.783Z,6.7
2023-01-13T07:22:20.214Z,6.7
2023-01-13T07:23:23.906Z,6.7
2023-01-13T07:24:27.672Z,6.7
2023-01-13T07:25:31.711Z,6.8
2023-01-13T07:26:34.570Z,6.8
2023-01-13T07:27:37.908Z,6.8
2023-01-13T07:28:40.941Z,6.8
2023-01-13T07:29:44.647Z,6.8
2023-01-13T07:30:47.757Z,6.8
2023-01-13T07:31:52.036Z,6.8
2023-01-13T07:32:55.602Z,6.8
2023-01-13T07:33:58.776Z,6.8
2023-01-13T07:35:02.177Z,6.8
2023-01-13T07:36:05.005Z,6.8
2023-01-13T07:37:08.112Z,6.8
2023-01-13T07:38:11.906Z,6.8
2023-01-13T07:39:14.364Z,6.8
2023-01-13T07:40:17.500Z,6.7
2023-01-13T07:41:21.235Z,6.7
2023-01-13T07:42:24.957Z,6.7
2023-01-13T07:43:27.418Z,6.7
2023-01-13T07:44:30.749Z,6.7
2023-01-13T07:45:34.508Z,6.7
2023-01-13T07:46:38.009Z,6.7
2023-01-13T07:47:41.403Z,6.7
2023-01-13T07:48:44.574Z,6.7
2023-01-13T07:49:47.725Z,6.7
2023-01-13T07:50:50.747Z,6.7
2023-01-13T07:51:53.947Z,6.8
2023-01-13T07:52:57.061Z,6.8
2023-01-13T07:53:59.578Z,6.8
2023-01-13T07:55:03.233Z,6.8
2023-01-13T07:56:06.463Z,6.8
2023-01-13T07:57:10.564Z,6.8
2023-01-13T07:58:14.065Z,6.8
2023-01-13T07:59:17.424Z,6.9
2023-01-13T08:00:20.906Z,6.9
2023-01-13T08:01:25.086Z,6.8
2023-01-13T08:02:29.671Z,6.8
2023-01-13T08:03:32.938Z,6.8
2023-01-13T08:04:36.262Z,6.8
2023-01-13T08:05:39.624Z,6.8
2023-01-13T08:06:42.419Z,6.9
2023-01-13T08:07:45.408Z,6.9
2023-01-13T08:08:49.149Z,6.9
2023-01-13T08:09:52.818Z,6.9
2023-01-13T08:10:56.299Z,6.9
2023-01-13T08:11:59.347Z,6.9
2023-01-13T08:13:03.298Z,6.9
2023-01-13T08:14:06.721Z,6.9
2023-01-13T08:15:10.103Z,6.9
2023-01-13T08:16:13.398Z,6.9
2023-01-13T08:17:20.588Z,6.9
2023-01-13T08:18:24.468Z,6.9
2023-01-13T08:19:27.804Z,6.9
2023-01-13T08:20:31.569Z,6.9
2023-01-13T08:21:34.911Z,6.9
2023-01-13T08:22:38.671Z,6.9
2023-01-13T08:23:41.468Z,6.9
2023-01-13T08:24:45.177Z,6.9
2023-01-13T08:25:48.007Z,6.9
2023-01-13T08:26:50.876Z,6.9
2023-01-13T08:27:54.025Z,6.9
2023-01-13T08:28:57.850Z,6.8
2023-01-13T08:30:01.075Z,6.9
2023-01-13T08:31:04.449Z,6.8
2023-01-13T08:32:07.645Z,6.9
2023-01-13T08:33:11.459Z,6.9
2023-01-13T08:34:14.552Z,6.9
2023-01-13T08:35:17.593Z,6.9
2023-01-13T08:36:21.269Z,6.9
2023-01-13T08:37:24.666Z,6.9
2023-01-13T08:38:27.808Z,6.9
2023-01-13T08:39:31.120Z,6.9
2023-01-13T08:40:33.944Z,7
2023-01-13T08:41:37.068Z,7
2023-01-13T08:42:40.877Z,6.9
2023-01-13T08:43:43.719Z,6.9
2023-01-13T08:44:47.303Z,6.9
2023-01-13T08:45:50.962Z,7
2023-01-13T08:46:54.068Z,6.9
2023-01-13T08:47:57.211Z,6.9
2023-01-13T08:48:59.699Z,7
2023-01-13T08:50:02.617Z,7.1
2023-01-13T08:51:05.859Z,7.1
2023-01-13T08:52:09.428Z,7.1
2023-01-13T08:53:12.894Z,7.1
2023-01-13T08:54:16.170Z,7.1
2023-01-13T08:55:19.151Z,7.1
2023-01-13T08:56:22.238Z,7.1
2023-01-13T08:57:25.710Z,7
2023-01-13T08:58:29.516Z,7.1
2023-01-13T08:59:33.001Z,7
2023-01-13T09:00:36.717Z,7.1
2023-01-13T09:01:41.036Z,7.1
2023-01-13T09:02:43.584Z,7.1
2023-01-13T09:03:46.987Z,7.1
2023-01-13T09:04:50.988Z,7.1
2023-01-13T09:05:54.490Z,7.1
2023-01-13T09:06:58.263Z,7.1
2023-01-13T09:08:01.692Z,7.1
2023-01-13T09:09:05.448Z,7.1
2023-01-13T09:10:08.553Z,7.1
2023-01-13T09:11:11.937Z,7.1
2023-01-13T09:12:15.354Z,7.1
2023-01-13T09:13:18.635Z,7.1
2023-01-13T09:14:22.085Z,7.1
2023-01-13T09:15:25.193Z,7.2
2023-01-13T09:16:29.284Z,7.3
2023-01-13T09:17:32.711Z,7.3
2023-01-13T09:18:36.459Z,7.4
2023-01-13T09:19:39.834Z,7.5
2023-01-13T09:20:43.348Z,7.5
2023-01-13T09:21:47.054Z,7.5
2023-01-13T09:22:50.457Z,7.4
2023-01-13T09:23:54.124Z,7.5
2023-01-13T09:24:57.354Z,7.6
2023-01-13T09:26:00.369Z,7.8
2023-01-13T09:27:02.849Z,7.8
2023-01-13T09:28:06.356Z,7.9
2023-01-13T09:29:09.474Z,8
2023-01-13T09:30:12.629Z,8.1
2023-01-13T09:31:15.892Z,8.1
2023-01-13T09:32:19.838Z,8.1
2023-01-13T09:33:23.644Z,8.2
2023-01-13T09:34:26.720Z,8.2
2023-01-13T09:35:29.817Z,8.2
2023-01-13T09:36:33.549Z,8.2
2023-01-13T09:37:36.590Z,8.3
2023-01-13T09:38:39.882Z,8.4
2023-01-13T09:39:42.998Z,8.4
2023-01-13T09:40:46.354Z,8.5
2023-01-13T09:41:49.545Z,8.6
2023-01-13T09:42:51.460Z,8.7
2023-01-13T09:43:54.566Z,8.9
2023-01-13T09:44:58.104Z,8.9
2023-01-13T09:46:02.172Z,8.9
2023-01-13T09:47:05.745Z,8.9
2023-01-13T09:48:09.222Z,9.1
2023-01-13T09:49:12.965Z,9.2
2023-01-13T09:50:16.405Z,9.2
2023-01-13T09:51:20.724Z,9.2
2023-01-13T09:52:27.961Z,9.3
2023-01-13T09:53:30.856Z,9.1
2023-01-13T09:54:34.280Z,9.2
2023-01-13T09:55:37.664Z,9.2
2023-01-13T09:56:41.374Z,9.3
2023-01-13T09:57:44.613Z,9.3
2023-01-13T09:58:48.053Z,9.3
2023-01-13T09:59:51.501Z,9.1
2023-01-13T10:00:54.830Z,9
2023-01-13T10:01:58.237Z,8.9
2023-01-13T10:03:02.044Z,8.8
2023-01-13T10:04:09.175Z,8.8
2023-01-13T10:05:12.936Z,8.7
2023-01-13T10:06:16.047Z,8.6
2023-01-13T10:07:20.921Z,8.6
2023-01-13T10:08:26.461Z,8.6
2023-01-13T10:09:29.032Z,8.6
2023-01-13T10:10:31.645Z,8.6
2023-01-13T10:11:35.116Z,8.5
2023-01-13T10:12:37.599Z,8.5
2023-01-13T10:13:40.999Z,8.5
2023-01-13T10:14:44.999Z,8.6
2023-01-13T10:15:48.405Z,8.7
2023-01-13T10:16:51.716Z,8.6
2023-01-13T10:17:54.752Z,8.6
2023-01-13T10:18:58.550Z,8.6
2023-01-13T10:20:02.300Z,8.6
2023-01-13T10:21:05.785Z,8.6
2023-01-13T10:22:11.204Z,8.7
2023-01-13T10:23:14.590Z,8.8
2023-01-13T10:24:17.080Z,8.8
2023-01-13T10:25:20.910Z,8.8
2023-01-13T10:26:24.199Z,8.8
2023-01-13T10:27:26.964Z,8.7
2023-01-13T10:28:30.683Z,8.7
2023-01-13T10:29:34.114Z,8.8
2023-01-13T10:30:37.361Z,8.9
2023-01-13T10:31:40.744Z,8.9
2023-01-13T10:32:44.390Z,9
2023-01-13T10:33:47.580Z,9
2023-01-13T10:34:50.433Z,9
2023-01-13T10:35:53.995Z,9.2
2023-01-13T10:36:57.504Z,9.4
2023-01-13T10:37:59.974Z,9.4
2023-01-13T10:39:03.615Z,9.4
2023-01-13T10:40:06.435Z,9.5
2023-01-13T10:41:09.710Z,9.6
2023-01-13T10:42:13.139Z,9.8
2023-01-13T10:43:16.248Z,9.8
2023-01-13T10:44:20.427Z,9.6
2023-01-13T10:45:23.424Z,9.7
2023-01-13T10:46:27.412Z,9.8
2023-01-13T10:47:30.929Z,9.8
2023-01-13T10:48:34.083Z,9.6
2023-01-13T10:49:37.628Z,9.4
2023-01-13T10:50:40.363Z,9.5
2023-01-13T10:51:43.773Z,9.4
2023-01-13T10:52:47.199Z,9.7
2023-01-13T10:53:50.314Z,9.9
2023-01-13T10:54:53.587Z,10.1
2023-01-13T10:55:56.978Z,10.3
2023-01-13T10:57:00.361Z,10.5
2023-01-13T10:58:03.365Z,10.4
2023-01-13T10:59:06.168Z,10.4
2023-01-13T11:00:09.645Z,10.4
2023-01-13T11:01:13.538Z,10.4
2023-01-13T11:02:28.958Z,10.3
2023-01-13T11:03:32.681Z,10.3
2023-01-13T11:04:36.021Z,10.5
2023-01-13T11:05:39.687Z,10.3
2023-01-13T11:06:42.878Z,9.9
2023-01-13T11:07:46.768Z,9.9
2023-01-13T11:08:50.223Z,9.8
2023-01-13T11:09:53.689Z,9.6
2023-01-13T11:10:57.160Z,9.5
2023-01-13T11:12:00.215Z,9.4
2023-01-13T11:13:04.242Z,9.4
2023-01-13T11:14:11.068Z,9.3
2023-01-13T11:15:14.647Z,9.3
2023-01-13T11:16:18.283Z,9.2
2023-01-13T11:17:22.167Z,9.2
2023-01-13T11:18:25.437Z,9.1
2023-01-13T11:19:29.478Z,9.1
2023-01-13T11:20:32.946Z,9.1
2023-01-13T11:21:36.516Z,9.1
2023-01-13T11:22:39.740Z,9
2023-01-13T11:23:43.256Z,8.8
2023-01-13T11:24:46.748Z,8.8
2023-01-13T11:25:50.605Z,8.8
2023-01-13T11:26:53.986Z,8.7
2023-01-13T11:27:57.363Z,8.7
2023-01-13T11:28:59.977Z,8.7
2023-01-13T11:30:03.297Z,8.7
2023-01-13T11:31:06.921Z,8.7
2023-01-13T11:32:10.760Z,8.7
2023-01-13T11:33:13.780Z,8.6
2023-01-13T11:34:16.985Z,8.6
2023-01-13T11:35:20.289Z,8.6
2023-01-13T11:36:23.112Z,8.6
2023-01-13T11:37:26.877Z,8.6
2023-01-13T11:38:30.648Z,8.6
2023-01-13T11:39:33.770Z,8.5
2023-01-13T11:40:37.189Z,8.5
2023-01-13T11:41:40.465Z,8.5
2023-01-13T11:42:43.946Z,8.4
2023-01-13T11:43:47.398Z,8.4
2023-01-13T11:44:50.691Z,8.4
2023-01-13T11:45:53.810Z,8.4
2023-01-13T11:46:57.265Z,8.4
2023-01-13T11:48:01.044Z,8.5
2023-01-13T11:49:04.096Z,8.5
2023-01-13T11:50:07.100Z,8.5
2023-01-13T11:51:10.192Z,8.5
2023-01-13T11:52:13.281Z,8.6
2023-01-13T11:53:17.329Z,8.5
2023-01-13T11:54:20.726Z,8.5
2023-01-13T11:55:24.956Z,8.5
2023-01-13T11:56:28.689Z,8.5
2023-01-13T11:57:32.132Z,8.4
2023-01-13T11:58:52.868Z,8.4
2023-01-13T11:59:55.885Z,8.4
2023-01-13T12:00:59.198Z,8.5
2023-01-13T12:02:03.340Z,8.5
2023-01-13T12:03:07.561Z,8.5
2023-01-13T12:04:11.128Z,8.4
2023-01-13T12:05:14.909Z,8.4
2023-01-13T12:06:18.584Z,8.5
2023-01-13T12:07:24.768Z,8.5
2023-01-13T12:08:27.792Z,8.5
2023-01-13T12:09:31.112Z,8.5
2023-01-13T12:10:34.516Z,8.4
2023-01-13T12:11:38.388Z,8.4
2023-01-13T12:12:42.402Z,8.4
2023-01-13T12:13:45.605Z,8.4
2023-01-13T12:14:48.755Z,8.4
2023-01-13T12:15:51.743Z,8.4
2023-01-13T12:16:54.783Z,8.4
2023-01-13T12:17:58.628Z,8.4
2023-01-13T12:19:02.078Z,8.4
2023-01-13T12:20:05.533Z,8.5
2023-01-13T12:21:08.014Z,8.5
2023-01-13T12:22:11.362Z,8.4
2023-01-13T12:23:15.196Z,8.4
2023-01-13T12:24:18.978Z,8.4
2023-01-13T12:25:21.819Z,8.4
2023-01-13T12:26:25.327Z,8.4
2023-01-13T12:27:28.747Z,8.4
2023-01-13T12:28:32.323Z,8.3
2023-01-13T12:29:35.444Z,8.3
2023-01-13T12:30:38.916Z,8.4
2023-01-13T12:31:42.443Z,8.4
2023-01-13T12:32:45.161Z,8.4
2023-01-13T12:33:48.313Z,8.4
2023-01-13T12:34:52.365Z,8.3
2023-01-13T12:35:55.486Z,8.4
2023-01-13T12:36:59.564Z,8.4
2023-01-13T12:38:03.076Z,8.4
2023-01-13T12:39:06.832Z,8.4
2023-01-13T12:40:10.269Z,8.4
2023-01-13T12:41:13.039Z,8.4
2023-01-13T12:42:16.768Z,8.4
2023-01-13T12:43:20.475Z,8.4
2023-01-13T12:44:23.622Z,8.4
2023-01-13T12:45:26.624Z,8.4
2023-01-13T12:46:29.741Z,8.4
2023-01-13T12:47:33.097Z,8.4
2023-01-13T12:48:36.235Z,8.4
2023-01-13T12:49:39.793Z,8.4
2023-01-13T12:50:43.084Z,8.5
2023-01-13T12:51:46.078Z,8.5
2023-01-13T12:52:48.904Z,8.5
2023-01-13T12:53:52.649Z,8.5
2023-01-13T12:54:56.442Z,8.4
2023-01-13T12:55:59.479Z,8.4
2023-01-13T12:57:02.975Z,8.4
2023-01-13T12:58:06.642Z,8.4
2023-01-13T12:59:10.130Z,8.4
2023-01-13T13:00:13.949Z,8.3
2023-01-13T13:01:18.054Z,8.3
2023-01-13T13:02:22.411Z,8.2
2023-01-13T13:03:26.147Z,8.2
2023-01-13T13:04:29.870Z,8.2
2023-01-13T13:05:32.647Z,8.1
2023-01-13T13:06:35.630Z,8.1
2023-01-13T13:07:39.054Z,8.1
2023-01-13T13:08:41.905Z,8.1
2023-01-13T13:09:45.364Z,8.1
2023-01-13T13:10:47.916Z,7.9
2023-01-13T13:11:51.637Z,7.9
2023-01-13T13:12:55.007Z,7.9
2023-01-13T13:13:58.367Z,7.9
2023-01-13T13:15:06.124Z,7.8
2023-01-13T13:16:09.210Z,7.8
2023-01-13T13:17:12.471Z,7.7
2023-01-13T13:18:15.904Z,7.7
2023-01-13T13:19:19.626Z,7.7
2023-01-13T13:20:23.081Z,7.7
2023-01-13T13:21:26.169Z,7.7
2023-01-13T13:22:29.207Z,7.7
2023-01-13T13:23:32.279Z,7.6
2023-01-13T13:24:35.368Z,7.6
2023-01-13T13:25:39.005Z,7.6
2023-01-13T13:26:42.849Z,7.6
2023-01-13T13:27:46.252Z,7.5
2023-01-13T13:28:49.687Z,7.4
2023-01-13T13:29:53.737Z,7.4
2023-01-13T13:30:57.470Z,7.4
2023-01-13T13:32:00.046Z,7.4
2023-01-13T13:33:02.917Z,7.4
2023-01-13T13:34:06.583Z,7.3
2023-01-13T13:35:09.594Z,7.4
2023-01-13T13:36:12.897Z,7.3
2023-01-13T13:37:15.730Z,7.3
2023-01-13T13:38:19.383Z,7.4
2023-01-13T13:39:23.680Z,7.4
2023-01-13T13:40:27.938Z,7.4
2023-01-13T13:41:31.525Z,7.4
2023-01-13T13:42:34.969Z,7.3
2023-01-13T13:43:38.676Z,7.3
2023-01-13T13:44:42.481Z,7.3
2023-01-13T13:45:47.132Z,7.3
2023-01-13T13:46:50.906Z,7.3
2023-01-13T13:47:54.660Z,7.3
2023-01-13T13:48:58.677Z,7.3
2023-01-13T13:50:02.132Z,7.4
2023-01-13T13:51:05.184Z,7.3
2023-01-13T13:52:08.524Z,7.4
2023-01-13T13:53:12.034Z,7.4
2023-01-13T13:54:15.440Z,7.4
2023-01-13T13:55:19.223Z,7.4
2023-01-13T13:56:22.123Z,7.4
2023-01-13T13:57:25.767Z,7.4
2023-01-13T13:58:28.723Z,7.3
2023-01-13T13:59:32.852Z,7.4
2023-01-13T14:00:35.691Z,7.4
2023-01-13T14:01:40.342Z,7.3
2023-01-13T14:02:44.192Z,7.3
2023-01-13T14:03:47.950Z,7.3
2023-01-13T14:04:51.443Z,7.3
2023-01-13T14:05:54.905Z,7.3
2023-01-13T14:06:58.294Z,7.3
2023-01-13T14:08:01.622Z,7.3
2023-01-13T14:09:04.842Z,7.3
2023-01-13T14:10:08.670Z,7.3
2023-01-13T14:11:12.081Z,7.3
2023-01-13T14:12:15.803Z,7.3
2023-01-13T14:13:19.401Z,7.3
2023-01-13T14:14:22.657Z,7.4
2023-01-13T14:15:25.564Z,7.3
2023-01-13T14:16:29.378Z,7.3
2023-01-13T14:17:33.074Z,7.3
2023-01-13T14:18:36.764Z,7.3
2023-01-13T14:19:40.846Z,7.3
2023-01-13T14:20:44.029Z,7.3
2023-01-13T14:21:47.689Z,7.3
2023-01-13T14:22:51.523Z,7.3
2023-01-13T14:23:55.208Z,7.3
2023-01-13T14:24:59.238Z,7.3
2023-01-13T14:26:02.906Z,7.4
2023-01-13T14:27:05.917Z,7.4
2023-01-13T14:28:09.275Z,7.4
2023-01-13T14:29:12.829Z,7.4
2023-01-13T14:30:16.281Z,7.4
2023-01-13T14:31:20.237Z,7.4
2023-01-13T14:32:24.026Z,7.5
2023-01-13T14:33:28.087Z,7.5
2023-01-13T14:34:34.655Z,7.4
2023-01-13T14:35:38.086Z,7.4